Kristiansund Airport, Kvernberget

Jump to: basic info | weather | frequencies | runways | comments

Related pages: nearby airports | nearby navaids | notams | map

Basic information (top)

Codes: KSU ENKB
Location: lon 63.111801, lat 7.824520, elev 204 ft / 62 m msl
Status: medium_airport
Scheduled airline service: yes
Links: Wikipedia Mobile

Weather (top)

Current conditions (rec'd 2014/11/25 20:20Z):

ENKB 252020Z 22004KT 9999 FEW024 BKN035 06/03 Q1024

Airport forecast for Molde Airport 27nm (50km) SW (rec'd 2011/03/08 08:45Z):

TAF TAF ESDF 0808 FCNO33 ENMI 080800 RRC TAF ENML 080800Z 0809/0818 21015KT 9999 FEW030 BKN050 
      TEMPO 0809/0818 21022G35KT 
      BECMG 0815/0818 21022G35KT 
      TEMPO 0815/0818 4000 RADZ BKN012

Frequencies (top)

Verify before use: may be inaccurate or out of date.

TWR: 118.3 MHz (TWR)

Runways (top)

07/25: 6,037 x 148 ft (1,840 x 45 m) — paved — lighted — threshold 07 displaced 197 ft (60 m) — threshold 25 displaced 263 ft (80 m)

Latest comments (top)

No comments yet for Kristiansund Airport, Kvernberget

More... (top)

See also NOTAMs and nearby airports and navaids, or visit the Kristiansund Airport, Kvernberget page at the main OurAirports website..